createdAt,value
2019-06-07T00:01:01.958Z,21.94
2019-06-07T00:03:30.357Z,21.98
2019-06-07T00:05:57.441Z,22.14
2019-06-07T00:08:28.522Z,21.89
2019-06-07T00:10:52.943Z,21.79
2019-06-07T00:13:20.381Z,21.76
2019-06-07T00:15:47.483Z,21.60
2019-06-07T00:18:19.893Z,21.34
2019-06-07T00:20:43.969Z,21.49
2019-06-07T00:23:12.197Z,20.83
2019-06-07T00:25:39.412Z,20.82
2019-06-07T00:28:06.380Z,21.24
2019-06-07T00:30:48.216Z,21.28
2019-06-07T00:33:01.932Z,21.35
2019-06-07T00:35:28.795Z,21.45
2019-06-07T00:37:55.670Z,21.66
2019-06-07T00:40:31.604Z,21.79
2019-06-07T00:42:51.191Z,21.40
2019-06-07T00:45:21.625Z,21.58
2019-06-07T00:47:46.665Z,21.79
2019-06-07T00:50:13.883Z,21.78
2019-06-07T00:53:13.176Z,21.43
2019-06-07T00:55:09.985Z,21.24
2019-06-07T00:57:36.952Z,20.96
2019-06-07T01:00:03.896Z,21.34
2019-06-07T01:02:32.382Z,21.16
2019-06-07T01:04:59.267Z,18.85
2019-06-07T01:07:26.195Z,18.73
2019-06-07T01:09:53.109Z,19.80
2019-06-07T01:12:22.089Z,20.44
2019-06-07T01:14:49.607Z,20.57
2019-06-07T01:17:27.999Z,20.85
2019-06-07T01:19:45.060Z,20.84
2019-06-07T01:22:12.013Z,20.92
2019-06-07T01:24:38.960Z,20.57
2019-06-07T01:27:05.824Z,20.79
2019-06-07T01:29:32.697Z,20.85
2019-06-07T01:31:59.564Z,20.90
2019-06-07T01:34:26.889Z,20.71
2019-06-07T01:36:54.035Z,20.82
2019-06-07T01:39:21.206Z,20.63
2019-06-07T01:41:49.560Z,20.98
2019-06-07T01:44:18.558Z,20.93
2019-06-07T01:46:45.056Z,20.15
2019-06-07T01:49:12.028Z,20.20
2019-06-07T01:51:38.978Z,19.70
2019-06-07T01:54:49.697Z,18.15
2019-06-07T01:56:34.429Z,17.12
2019-06-07T01:59:01.360Z,18.56
2019-06-07T02:01:34.707Z,19.57
2019-06-07T02:03:56.910Z,19.84
2019-06-07T02:06:27.126Z,20.03
2019-06-07T02:08:52.344Z,19.60
2019-06-07T02:11:20.934Z,19.81
2019-06-07T02:13:48.174Z,20.02
2019-06-07T02:16:15.053Z,19.98
2019-06-07T02:19:00.633Z,20.01
2019-06-07T02:21:10.919Z,20.08
2019-06-07T02:23:37.867Z,20.11
2019-06-07T02:26:04.819Z,20.20
2019-06-07T02:28:44.258Z,20.22
2019-06-07T02:31:00.819Z,20.40
2019-06-07T02:33:31.142Z,20.41
2019-06-07T02:35:56.369Z,20.27
2019-06-07T02:38:27.663Z,20.25
2019-06-07T02:40:51.905Z,20.33
2019-06-07T02:43:18.833Z,20.16
2019-06-07T02:45:45.721Z,20.03
2019-06-07T02:48:12.591Z,19.81
2019-06-07T02:50:39.923Z,19.89
2019-06-07T02:53:06.890Z,20.10
2019-06-07T02:56:10.845Z,19.84
2019-06-07T02:58:02.441Z,19.79
2019-06-07T03:01:05.664Z,19.91
2019-06-07T03:02:57.977Z,19.96
2019-06-07T03:05:25.201Z,19.93
2019-06-07T03:07:52.200Z,19.77
2019-06-07T03:10:19.174Z,19.84
2019-06-07T03:12:46.113Z,19.86
2019-06-07T03:15:32.351Z,19.32
2019-06-07T03:17:42.716Z,19.25
2019-06-07T03:20:10.033Z,19.27
2019-06-07T03:22:39.907Z,19.56
2019-06-07T03:25:05.513Z,19.71
2019-06-07T03:27:41.537Z,19.31
2019-06-07T03:30:35.395Z,18.86
2019-06-07T03:32:38.569Z,18.95
2019-06-07T03:34:59.617Z,19.23
2019-06-07T03:37:28.067Z,19.11
2019-06-07T03:39:55.073Z,19.37
2019-06-07T03:42:21.967Z,19.20
2019-06-07T03:44:48.913Z,18.79
2019-06-07T03:47:15.873Z,18.82
2019-06-07T03:49:42.910Z,18.94
2019-06-07T03:52:09.903Z,18.88
2019-06-07T03:54:38.458Z,18.92
2019-06-07T03:57:05.365Z,18.81
2019-06-07T03:59:38.611Z,19.08
2019-06-07T04:02:00.881Z,19.20
2019-06-07T04:04:29.786Z,19.26
2019-06-07T04:06:56.830Z,19.31
2019-06-07T04:09:23.708Z,19.40
2019-06-07T04:11:50.588Z,19.57
2019-06-07T04:14:17.475Z,19.63
2019-06-07T04:16:44.978Z,19.69
2019-06-07T04:19:12.173Z,19.74
2019-06-07T04:21:42.464Z,19.78
2019-06-07T04:24:07.776Z,19.80
2019-06-07T04:26:36.744Z,19.89
2019-06-07T04:31:33.987Z,19.99
2019-06-07T04:34:00.868Z,19.42
2019-06-07T04:36:41.859Z,19.64
2019-06-07T04:38:57.449Z,19.95
2019-06-07T04:41:24.364Z,19.98
2019-06-07T04:43:51.323Z,20.06
2019-06-07T04:46:18.331Z,20.43
2019-06-07T04:48:45.277Z,20.36
2019-06-07T04:51:12.201Z,20.93
2019-06-07T04:53:43.034Z,21.13
2019-06-07T04:56:07.746Z,21.34
2019-06-07T04:58:35.771Z,21.62
2019-06-07T05:01:03.827Z,21.70
2019-06-07T05:03:35.008Z,21.75
2019-06-07T05:05:59.444Z,21.65
2019-06-07T05:08:28.452Z,21.69
2019-06-07T05:10:54.980Z,21.37
2019-06-07T05:13:21.954Z,21.22
2019-06-07T05:15:48.936Z,21.30
2019-06-07T05:18:15.877Z,21.32
2019-06-07T05:20:44.640Z,21.11
2019-06-07T05:23:11.413Z,21.14
2019-06-07T05:25:42.227Z,21.16
2019-06-07T05:28:07.007Z,21.39
2019-06-07T05:31:02.978Z,21.32
2019-06-07T05:33:03.561Z,21.25
2019-06-07T05:35:32.987Z,21.34
2019-06-07T05:38:00.056Z,21.29
2019-06-07T05:40:26.993Z,21.35
2019-06-07T05:42:53.878Z,21.34
2019-06-07T05:45:20.805Z,21.35
2019-06-07T05:47:51.072Z,21.24
2019-06-07T05:50:38.533Z,21.19
2019-06-07T05:52:47.390Z,21.38
2019-06-07T05:55:13.605Z,21.55
2019-06-07T05:57:45.776Z,21.40
2019-06-07T06:00:09.080Z,21.28
2019-06-07T06:02:56.778Z,21.23
2019-06-07T06:05:04.643Z,21.44
2019-06-07T06:07:31.606Z,21.67
2019-06-07T06:09:59.617Z,21.12
2019-06-07T06:12:35.106Z,21.10
2019-06-07T06:14:55.409Z,21.42
2019-06-07T06:17:22.316Z,21.40
2019-06-07T06:19:52.962Z,21.47
2019-06-07T06:22:17.829Z,21.56
2019-06-07T06:25:24.484Z,21.67
2019-06-07T06:27:55.107Z,21.73
2019-06-07T06:29:43.913Z,21.68
2019-06-07T06:34:41.395Z,21.57
2019-06-07T06:37:07.663Z,21.71
2019-06-07T06:39:34.666Z,21.81
2019-06-07T06:42:03.856Z,21.64
2019-06-07T06:44:30.288Z,21.46
2019-06-07T06:46:58.366Z,21.61
2019-06-07T06:49:25.673Z,21.33
2019-06-07T06:51:53.793Z,21.39
2019-06-07T06:54:39.350Z,21.27
2019-06-07T06:56:52.427Z,21.27
2019-06-07T06:59:37.945Z,21.46
2019-06-07T07:01:50.545Z,21.43
2019-06-07T07:04:16.405Z,21.33
2019-06-07T07:06:43.337Z,21.36
2019-06-07T07:09:10.274Z,21.29
2019-06-07T07:11:52.503Z,21.12
2019-06-07T07:14:05.757Z,21.24
2019-06-07T07:16:32.701Z,20.85
2019-06-07T07:18:59.604Z,21.03
2019-06-07T07:21:26.490Z,20.22
2019-06-07T07:24:19.601Z,19.64
2019-06-07T07:26:22.037Z,18.65
2019-06-07T07:28:52.785Z,18.89
2019-06-07T07:31:17.590Z,18.94
2019-06-07T07:34:27.372Z,19.68
2019-06-07T07:36:28.648Z,20.23
2019-06-07T07:38:41.725Z,20.45
2019-06-07T07:41:15.290Z,20.42
2019-06-07T07:43:37.209Z,19.89
2019-06-07T07:46:26.809Z,20.16
2019-06-07T07:48:33.028Z,20.04
2019-06-07T07:51:01.205Z,20.32
2019-06-07T07:53:47.903Z,20.46
2019-06-07T07:55:59.933Z,20.56
2019-06-07T07:58:25.738Z,20.75
2019-06-07T08:01:00.730Z,20.64
2019-06-07T08:03:21.369Z,20.90
2019-06-07T08:05:49.188Z,20.75
2019-06-07T08:08:16.977Z,20.68
2019-06-07T08:10:43.841Z,20.85
2019-06-07T08:13:27.646Z,20.82
2019-06-07T08:15:39.310Z,20.80
2019-06-07T08:18:06.247Z,20.16
2019-06-07T08:20:33.121Z,20.47
2019-06-07T08:23:01.318Z,20.69
2019-06-07T08:25:28.866Z,20.83
2019-06-07T08:27:57.219Z,20.76
2019-06-07T08:32:58.808Z,20.94
2019-06-07T08:36:03.037Z,20.92
2019-06-07T08:40:19.098Z,21.52
2019-06-07T08:43:04.536Z,21.51
2019-06-07T08:45:14.658Z,21.53
2019-06-07T08:47:41.600Z,21.68
2019-06-07T08:50:08.577Z,20.75
2019-06-07T08:52:35.476Z,20.51
2019-06-07T08:55:04.970Z,20.75
2019-06-07T08:57:31.007Z,21.01
2019-06-07T09:00:05.995Z,20.83
2019-06-07T09:02:26.678Z,20.72
2019-06-07T09:04:58.550Z,20.32
2019-06-07T09:07:22.439Z,19.56
2019-06-07T09:09:50.464Z,19.20
2019-06-07T09:12:17.771Z,19.51
2019-06-07T09:14:59.985Z,20.19
2019-06-07T09:17:13.224Z,20.43
2019-06-07T09:19:41.161Z,20.65
2019-06-07T09:22:11.193Z,21.14
2019-06-07T09:24:36.708Z,21.48
2019-06-07T09:27:07.292Z,21.21
2019-06-07T09:29:32.529Z,21.55
2019-06-07T09:32:00.610Z,21.72
2019-06-07T09:34:28.069Z,21.44
2019-06-07T09:36:58.256Z,21.34
2019-06-07T09:39:23.888Z,21.79
2019-06-07T09:41:50.845Z,21.86
2019-06-07T09:44:25.219Z,21.95
2019-06-07T09:46:46.324Z,20.92
2019-06-07T09:49:28.957Z,20.84
2019-06-07T09:51:41.877Z,20.49
2019-06-07T09:54:11.402Z,21.04
2019-06-07T09:56:37.415Z,20.66
2019-06-07T09:59:07.475Z,20.63
2019-06-07T10:01:32.861Z,20.66
2019-06-07T10:04:04.596Z,20.77
2019-06-07T10:06:28.313Z,20.52
2019-06-07T10:11:23.852Z,20.04
2019-06-07T10:13:50.735Z,20.54
2019-06-07T10:16:17.636Z,20.24
2019-06-07T10:18:44.606Z,20.16
2019-06-07T10:21:15.189Z,21.21
2019-06-07T10:23:40.490Z,21.27
2019-06-07T10:26:07.989Z,20.76
2019-06-07T10:28:34.969Z,20.33
2019-06-07T10:31:02.110Z,20.23
2019-06-07T10:33:30.110Z,20.28
2019-06-07T10:35:57.058Z,20.63
2019-06-07T10:38:23.923Z,20.93
2019-06-07T10:40:50.787Z,20.04
2019-06-07T10:43:17.658Z,20.52
2019-06-07T10:45:44.660Z,20.08
2019-06-07T10:48:11.808Z,20.48
2019-06-07T10:50:38.777Z,20.24
2019-06-07T10:53:06.449Z,20.00
2019-06-07T10:55:33.543Z,20.26
2019-06-07T10:58:00.789Z,19.97
2019-06-07T11:00:27.752Z,20.05
2019-06-07T11:02:55.503Z,20.69
2019-06-07T11:05:22.524Z,20.54
2019-06-07T11:07:49.432Z,20.49
2019-06-07T11:10:19.731Z,20.40
2019-06-07T11:12:45.000Z,20.03
2019-06-07T11:15:13.001Z,19.99
2019-06-07T11:17:39.996Z,20.04
2019-06-07T11:20:08.220Z,20.47
2019-06-07T11:22:35.330Z,20.45
2019-06-07T11:25:02.747Z,20.49
2019-06-07T11:27:30.208Z,20.59
2019-06-07T11:29:57.245Z,20.65
2019-06-07T11:32:24.130Z,20.61
2019-06-07T11:34:51.027Z,20.37
2019-06-07T11:37:19.132Z,20.80
2019-06-07T11:39:46.177Z,20.63
2019-06-07T11:42:13.985Z,20.40
2019-06-07T11:44:55.658Z,20.51
2019-06-07T11:47:10.463Z,20.50
2019-06-07T11:49:37.540Z,20.61
2019-06-07T11:52:04.866Z,20.83
2019-06-07T11:54:31.801Z,21.05
2019-06-07T11:56:58.963Z,20.63
2019-06-07T11:59:25.867Z,20.64
2019-06-07T12:01:52.794Z,20.42
2019-06-07T12:04:32.444Z,20.76
2019-06-07T12:06:49.389Z,20.89
2019-06-07T12:09:16.870Z,20.55
2019-06-07T12:11:43.837Z,20.63
2019-06-07T12:14:10.976Z,20.93
2019-06-07T12:16:38.021Z,21.15
2019-06-07T12:19:04.996Z,21.06
2019-06-07T12:21:31.953Z,20.64
2019-06-07T12:23:58.947Z,21.08
2019-06-07T12:26:25.839Z,21.31
2019-06-07T12:28:53.716Z,21.30
2019-06-07T12:31:21.206Z,21.07
2019-06-07T12:33:48.279Z,21.31
2019-06-07T12:36:15.926Z,21.24
2019-06-07T12:38:43.118Z,21.09
2019-06-07T12:41:10.231Z,21.21
2019-06-07T12:43:37.131Z,21.51
2019-06-07T12:46:04.144Z,21.76
2019-06-07T12:48:31.074Z,21.65
2019-06-07T12:50:58.387Z,21.57
2019-06-07T12:53:28.145Z,21.62
2019-06-07T12:55:53.980Z,21.39
2019-06-07T12:58:28.346Z,21.46
2019-06-07T13:00:50.629Z,21.71
2019-06-07T13:03:18.614Z,21.52
2019-06-07T13:05:45.496Z,21.65
2019-06-07T13:08:12.797Z,21.75
2019-06-07T13:10:39.680Z,22.03
2019-06-07T13:13:06.545Z,22.06
2019-06-07T13:15:33.422Z,21.99
2019-06-07T13:18:00.290Z,21.97
2019-06-07T13:20:28.806Z,21.96
2019-06-07T13:22:55.829Z,22.11
2019-06-07T13:25:23.922Z,22.38
2019-06-07T13:27:51.375Z,22.53
2019-06-07T13:30:18.951Z,22.57
2019-06-07T13:32:46.044Z,22.41
2019-06-07T13:35:13.605Z,22.30
2019-06-07T13:37:40.584Z,22.39
2019-06-07T13:40:07.574Z,22.44
2019-06-07T13:42:34.498Z,22.35
2019-06-07T13:45:01.393Z,22.47
2019-06-07T13:47:29.440Z,22.60
2019-06-07T13:49:56.338Z,22.59
2019-06-07T13:52:23.349Z,22.78
2019-06-07T13:54:50.345Z,22.90
2019-06-07T13:57:17.919Z,22.63
2019-06-07T13:59:45.026Z,22.63
2019-06-07T14:02:11.969Z,22.77
2019-06-07T14:04:38.932Z,22.67
2019-06-07T14:07:06.039Z,22.70
2019-06-07T14:09:33.364Z,22.72
2019-06-07T14:12:00.292Z,22.79
2019-06-07T14:14:29.004Z,22.73
2019-06-07T14:16:56.041Z,22.80
2019-06-07T14:19:24.363Z,22.86
2019-06-07T14:21:51.679Z,23.04
2019-06-07T14:24:18.635Z,23.10
2019-06-07T14:26:45.528Z,23.11
2019-06-07T14:29:12.484Z,23.24
2019-06-07T14:31:39.762Z,23.25
2019-06-07T14:34:07.857Z,23.32
2019-06-07T14:36:34.944Z,23.05
2019-06-07T14:39:02.153Z,23.03
2019-06-07T14:41:31.809Z,23.12
2019-06-07T14:43:58.845Z,23.15
2019-06-07T14:46:25.800Z,23.37
2019-06-07T14:48:52.661Z,23.30
2019-06-07T14:51:19.960Z,23.28
2019-06-07T14:53:47.245Z,23.25
2019-06-07T14:56:14.127Z,23.29
2019-06-07T14:58:43.540Z,23.24
2019-06-07T15:01:09.755Z,23.21
2019-06-07T15:03:36.640Z,23.13
2019-06-07T15:06:03.577Z,23.19
2019-06-07T15:08:30.721Z,23.32
2019-06-07T15:10:58.182Z,23.36
2019-06-07T15:13:25.139Z,23.38
2019-06-07T15:15:52.034Z,23.46
2019-06-07T15:18:18.989Z,23.49
2019-06-07T15:20:46.040Z,23.44
2019-06-07T15:23:12.960Z,23.44
2019-06-07T15:25:39.937Z,23.51
2019-06-07T15:28:06.939Z,23.59
2019-06-07T15:30:33.944Z,23.68
2019-06-07T15:33:00.886Z,23.68
2019-06-07T15:35:30.131Z,23.66
2019-06-07T15:37:57.088Z,23.62
2019-06-07T15:40:24.399Z,23.64
2019-06-07T15:42:53.202Z,23.66
2019-06-07T15:45:20.268Z,23.69
2019-06-07T15:47:47.193Z,23.77
2019-06-07T15:50:14.102Z,23.82
2019-06-07T15:52:43.228Z,23.89
2019-06-07T15:55:10.074Z,23.83
2019-06-07T15:57:37.434Z,23.73
2019-06-07T16:00:04.519Z,23.79
2019-06-07T16:02:33.527Z,23.84
2019-06-07T16:05:00.544Z,23.76
2019-06-07T16:07:27.510Z,23.78
2019-06-07T16:09:54.374Z,23.79
2019-06-07T16:12:21.297Z,23.74
2019-06-07T16:14:48.158Z,23.74
2019-06-07T16:17:16.084Z,23.72
2019-06-07T16:19:46.326Z,23.74
2019-06-07T16:22:11.767Z,23.63
2019-06-07T16:24:39.767Z,23.54
2019-06-07T16:27:06.748Z,23.56
2019-06-07T16:29:34.597Z,23.55
2019-06-07T16:32:01.627Z,23.58
2019-06-07T16:34:28.512Z,23.61
2019-06-07T16:36:55.822Z,23.65
2019-06-07T16:39:22.769Z,23.68
2019-06-07T16:41:49.646Z,23.76
2019-06-07T16:44:16.965Z,23.91
2019-06-07T16:46:45.043Z,23.89
2019-06-07T16:49:12.075Z,23.86
2019-06-07T16:51:39.170Z,23.97
2019-06-07T16:54:06.149Z,24.01
2019-06-07T16:56:33.320Z,23.94
2019-06-07T16:59:00.241Z,23.97
2019-06-07T17:01:27.276Z,23.95
2019-06-07T17:03:54.316Z,23.97
2019-06-07T17:06:21.258Z,23.98
2019-06-07T17:08:48.485Z,23.93
2019-06-07T17:11:15.498Z,23.90
2019-06-07T17:13:42.524Z,23.86
2019-06-07T17:16:09.410Z,23.77
2019-06-07T17:18:37.265Z,23.71
2019-06-07T17:21:05.266Z,23.75
2019-06-07T17:23:32.233Z,23.72
2019-06-07T17:25:59.180Z,23.72
2019-06-07T17:28:26.387Z,23.71
2019-06-07T17:30:53.249Z,23.72
2019-06-07T17:33:20.119Z,23.71
2019-06-07T17:35:48.430Z,23.63
2019-06-07T17:38:15.566Z,23.66
2019-06-07T17:40:42.806Z,23.70
2019-06-07T17:43:10.104Z,23.66
2019-06-07T17:45:36.987Z,23.69
2019-06-07T17:48:04.001Z,23.61
2019-06-07T17:50:31.089Z,23.57
2019-06-07T17:52:58.036Z,23.50
2019-06-07T17:55:24.977Z,23.45
2019-06-07T17:57:52.661Z,23.44
2019-06-07T18:00:28.560Z,23.42
2019-06-07T18:02:48.803Z,23.48
2019-06-07T18:05:16.212Z,23.42
2019-06-07T18:07:43.455Z,23.42
2019-06-07T18:10:11.669Z,23.39
2019-06-07T18:12:38.629Z,23.41
2019-06-07T18:15:05.594Z,23.36
2019-06-07T18:17:34.851Z,23.36
2019-06-07T18:20:01.519Z,23.44
2019-06-07T18:22:28.420Z,23.45
2019-06-07T18:24:55.320Z,23.41
2019-06-07T18:27:23.523Z,23.31
2019-06-07T18:29:50.673Z,23.27
2019-06-07T18:32:17.664Z,23.21
2019-06-07T18:34:44.720Z,23.11
2019-06-07T18:37:12.061Z,23.08
2019-06-07T18:39:40.061Z,23.08
2019-06-07T18:42:06.924Z,23.07
2019-06-07T18:44:33.873Z,23.08
2019-06-07T18:47:00.765Z,23.00
2019-06-07T18:49:28.090Z,22.90
2019-06-07T18:51:55.632Z,22.93
2019-06-07T18:54:23.220Z,23.08
2019-06-07T18:56:50.744Z,23.01
2019-06-07T18:59:17.809Z,23.02
2019-06-07T19:01:44.693Z,23.00
2019-06-07T19:04:11.598Z,23.09
2019-06-07T19:06:38.521Z,23.16
2019-06-07T19:09:05.693Z,23.15
2019-06-07T19:11:32.882Z,23.11
2019-06-07T19:13:59.841Z,22.95
2019-06-07T19:16:27.128Z,23.09
2019-06-07T19:18:54.017Z,23.05
2019-06-07T19:21:20.881Z,23.05
2019-06-07T19:23:47.761Z,22.87
2019-06-07T19:26:14.643Z,22.73
2019-06-07T19:28:42.826Z,22.82
2019-06-07T19:31:09.843Z,22.77
2019-06-07T19:33:48.733Z,22.68
2019-06-07T19:36:05.453Z,22.72
2019-06-07T19:38:32.678Z,22.60
2019-06-07T19:41:16.721Z,22.48
2019-06-07T19:43:28.220Z,22.40
2019-06-07T19:45:56.165Z,22.33
2019-06-07T19:48:23.150Z,22.53
2019-06-07T19:50:50.027Z,22.32
2019-06-07T19:53:17.166Z,22.36
2019-06-07T19:55:44.100Z,22.23
2019-06-07T19:58:11.056Z,22.02
2019-06-07T20:00:38.041Z,22.17
2019-06-07T20:03:06.618Z,21.96
2019-06-07T20:05:34.097Z,21.85
2019-06-07T20:08:02.619Z,21.64
2019-06-07T20:10:29.810Z,21.73
2019-06-07T20:12:57.080Z,21.58
2019-06-07T20:15:29.060Z,21.50
2019-06-07T20:17:52.983Z,21.64
2019-06-07T20:20:20.246Z,21.69
2019-06-07T20:22:47.391Z,21.47
2019-06-07T20:25:14.374Z,21.52
2019-06-07T20:27:41.253Z,21.57
2019-06-07T20:30:08.630Z,21.68
2019-06-07T20:32:35.718Z,21.84
2019-06-07T20:35:03.833Z,21.67
2019-06-07T20:37:30.939Z,21.64
2019-06-07T20:40:02.637Z,21.36
2019-06-07T20:42:26.961Z,21.61
2019-06-07T20:44:53.911Z,21.57
2019-06-07T20:47:21.147Z,21.64
2019-06-07T20:49:48.030Z,21.75
2019-06-07T20:52:15.974Z,21.78
2019-06-07T20:54:43.253Z,22.02
2019-06-07T20:57:10.208Z,22.42
2019-06-07T20:59:37.248Z,22.29
2019-06-07T21:02:05.197Z,22.36
2019-06-07T21:04:32.176Z,22.33
2019-06-07T21:06:59.586Z,21.90
2019-06-07T21:09:27.857Z,21.89
2019-06-07T21:11:55.121Z,21.61
2019-06-07T21:14:22.049Z,22.18
2019-06-07T21:16:48.930Z,22.23
2019-06-07T21:19:15.823Z,22.21
2019-06-07T21:21:42.793Z,21.59
2019-06-07T21:24:10.850Z,22.07
2019-06-07T21:26:37.894Z,21.76
2019-06-07T21:29:04.920Z,21.27
2019-06-07T21:31:31.886Z,21.38
2019-06-07T21:33:58.768Z,21.50
2019-06-07T21:36:26.105Z,21.49
2019-06-07T21:38:53.050Z,21.17
2019-06-07T21:41:20.045Z,21.32
2019-06-07T21:43:46.943Z,21.01
2019-06-07T21:46:20.202Z,20.89
2019-06-07T21:48:42.491Z,20.71
2019-06-07T21:51:10.489Z,20.73
2019-06-07T21:53:37.989Z,20.60
2019-06-07T21:56:04.895Z,20.80
2019-06-07T21:58:31.845Z,21.05
2019-06-07T22:00:58.836Z,21.03
2019-06-07T22:03:25.941Z,20.88
2019-06-07T22:05:52.805Z,21.25
2019-06-07T22:08:19.712Z,20.86
2019-06-07T22:10:46.582Z,20.80
2019-06-07T22:13:14.240Z,20.63
2019-06-07T22:15:41.528Z,20.71
2019-06-07T22:18:08.595Z,20.59
2019-06-07T22:20:35.646Z,20.47
2019-06-07T22:23:02.537Z,20.44
2019-06-07T22:25:29.507Z,20.48
2019-06-07T22:27:56.772Z,20.50
2019-06-07T22:30:23.759Z,20.49
2019-06-07T22:32:50.708Z,20.79
2019-06-07T22:35:17.570Z,21.22
2019-06-07T22:37:44.542Z,21.53
2019-06-07T22:40:12.522Z,21.36
2019-06-07T22:42:39.572Z,21.15
2019-06-07T22:45:07.762Z,20.95
2019-06-07T22:47:35.399Z,20.93
2019-06-07T22:50:02.325Z,21.13
2019-06-07T22:52:29.305Z,20.96
2019-06-07T22:54:56.267Z,20.70
2019-06-07T22:57:23.236Z,20.94
2019-06-07T22:59:50.162Z,20.92
2019-06-07T23:02:18.836Z,20.87
2019-06-07T23:04:45.938Z,21.23
2019-06-07T23:07:12.983Z,21.35
2019-06-07T23:09:39.991Z,21.42
2019-06-07T23:12:06.953Z,21.55
2019-06-07T23:14:33.897Z,21.45
2019-06-07T23:17:00.822Z,21.31
2019-06-07T23:19:27.756Z,21.29
2019-06-07T23:21:54.694Z,21.27
2019-06-07T23:24:21.603Z,21.38
2019-06-07T23:26:48.531Z,21.25
2019-06-07T23:29:16.519Z,21.40
2019-06-07T23:31:43.631Z,21.44
2019-06-07T23:34:10.752Z,21.29
2019-06-07T23:36:37.665Z,21.40
2019-06-07T23:39:04.895Z,21.54
2019-06-07T23:41:36.931Z,21.19
2019-06-07T23:44:24.461Z,21.25
2019-06-07T23:46:51.570Z,20.23
2019-06-07T23:49:19.612Z,20.41
2019-06-07T23:51:46.587Z,20.97
2019-06-07T23:54:13.721Z,21.43
2019-06-07T23:56:40.825Z,21.69
2019-06-07T23:59:07.792Z,21.83
